Okolona, Ohio
Current Conditions -  °F | °C
As of 2:53 AM on Friday 31 Oct 2014 (Local Time) from KDFI Reporting Station
Overcast Overcast  
Wind Chill: 42°   Ceiling: 8000
Heat Index: 44°   Visibility: 10mi
Dew Point: 36°   Wind: 5mph
Humidity: 73%   Direction: 220°SW
Pressure: 30"   Gusts: NA
Location:  41.36°N, 84.22°W
Report Text: KDFI 310653Z AUTO 22004KT 10SM SCT047 OVC080 07/02 A3000 RMK AO2 SLP162 T00670022 $
Loading
Personal Weather Stations






























Interactive Weather Map
Tropical Storm Tracking
New forecast layout! Learn more

10-Day Weather Forecast

Advertisements
Track Severe Weather on mobile